createdAt,value
2022-12-11T00:00:40.403Z,14.10
2022-12-11T00:03:12.760Z,13.10
2022-12-11T00:05:43.739Z,13.53
2022-12-11T00:08:11.535Z,14.03
2022-12-11T00:10:39.389Z,16.10
2022-12-11T00:13:06.965Z,21.40
2022-12-11T00:15:35.911Z,15.77
2022-12-11T00:18:03.561Z,14.13
2022-12-11T00:20:31.351Z,13.07
2022-12-11T00:22:58.937Z,13.27
2022-12-11T00:25:26.874Z,13.00
2022-12-11T00:27:54.475Z,13.00
2022-12-11T00:30:22.184Z,12.67
2022-12-11T00:32:52.420Z,13.77
2022-12-11T00:35:19.977Z,13.27
2022-12-11T00:37:47.723Z,13.17
2022-12-11T00:40:15.472Z,13.73
2022-12-11T00:42:43.108Z,13.13
2022-12-11T00:45:11.799Z,12.10
2022-12-11T00:47:39.800Z,12.27
2022-12-11T00:50:09.511Z,13.30
2022-12-11T00:52:37.137Z,13.73
2022-12-11T00:55:05.236Z,12.30
2022-12-11T00:57:33.052Z,14.13
2022-12-11T01:00:00.775Z,12.57
2022-12-11T01:02:28.521Z,12.40
2022-12-11T01:04:56.276Z,12.83
2022-12-11T01:07:25.904Z,13.43
2022-12-11T01:10:11.055Z,12.77
2022-12-11T01:12:38.740Z,11.30
2022-12-11T01:15:07.355Z,13.03
2022-12-11T01:17:35.311Z,13.13
2022-12-11T01:20:04.284Z,12.90
2022-12-11T01:22:33.384Z,13.00
2022-12-11T01:25:01.072Z,12.90
2022-12-11T01:27:28.702Z,12.63
2022-12-11T01:29:56.453Z,14.30
2022-12-11T01:32:24.044Z,14.07
2022-12-11T01:34:52.495Z,18.83
2022-12-11T01:37:20.197Z,16.10
2022-12-11T01:39:49.230Z,14.23
2022-12-11T01:42:18.901Z,14.83
2022-12-11T01:45:27.180Z,13.33
2022-12-11T01:47:58.867Z,13.90
2022-12-11T01:50:26.673Z,14.63
2022-12-11T01:52:54.566Z,14.27
2022-12-11T01:55:23.541Z,14.43
2022-12-11T01:57:52.359Z,14.20
2022-12-11T02:00:20.759Z,14.03
2022-12-11T02:02:48.523Z,14.37
2022-12-11T02:05:16.527Z,14.93
2022-12-11T02:07:47.742Z,15.13
2022-12-11T02:10:15.571Z,16.00
2022-12-11T02:12:53.366Z,15.63
2022-12-11T02:15:27.011Z,14.10
2022-12-11T02:17:59.669Z,14.37
2022-12-11T02:20:29.877Z,15.83
2022-12-11T02:23:25.459Z,14.90
2022-12-11T02:25:59.032Z,14.77
2022-12-11T02:28:31.402Z,14.00
2022-12-11T02:31:03.061Z,14.47
2022-12-11T02:33:37.170Z,15.13
2022-12-11T02:36:06.386Z,14.63
2022-12-11T02:38:36.185Z,14.50
2022-12-11T02:41:04.203Z,13.63
2022-12-11T02:43:34.474Z,14.10
2022-12-11T02:46:03.214Z,13.87
2022-12-11T02:48:31.665Z,12.83
2022-12-11T02:51:00.053Z,14.40
2022-12-11T02:53:30.727Z,13.33
2022-12-11T02:56:01.608Z,13.87
2022-12-11T02:58:30.761Z,14.10
2022-12-11T03:00:59.830Z,13.40
2022-12-11T03:03:29.641Z,13.60
2022-12-11T03:05:57.495Z,14.10
2022-12-11T03:08:25.291Z,13.50
2022-12-11T03:10:52.990Z,13.60
2022-12-11T03:13:22.041Z,14.07
2022-12-11T03:15:57.289Z,13.73
2022-12-11T03:18:31.699Z,13.80
2022-12-11T03:21:06.446Z,13.40
2022-12-11T03:23:36.667Z,13.47
2022-12-11T03:26:06.596Z,13.50
2022-12-11T03:28:41.107Z,13.20
2022-12-11T03:31:12.482Z,13.73
2022-12-11T03:33:42.816Z,12.67
2022-12-11T03:36:12.328Z,15.17
2022-12-11T03:38:43.258Z,16.83
2022-12-11T03:41:12.730Z,17.30
2022-12-11T03:43:41.786Z,16.60
2022-12-11T03:46:10.885Z,16.57
2022-12-11T03:48:41.736Z,16.70
2022-12-11T03:51:10.392Z,16.87
2022-12-11T03:53:38.968Z,16.67
2022-12-11T03:56:08.294Z,15.93
2022-12-11T03:58:35.985Z,17.27
2022-12-11T04:01:03.710Z,17.53
2022-12-11T04:03:31.353Z,16.73
2022-12-11T04:06:00.452Z,16.13
2022-12-11T04:08:28.255Z,17.07
2022-12-11T04:11:09.925Z,16.87
2022-12-11T04:13:37.882Z,17.77
2022-12-11T04:16:04.942Z,17.97
2022-12-11T04:18:50.317Z,18.97
2022-12-11T04:21:39.638Z,17.87
2022-12-11T04:24:17.448Z,17.03
2022-12-11T04:26:46.101Z,18.07
2022-12-11T04:29:14.243Z,17.23
2022-12-11T04:31:41.877Z,17.63
2022-12-11T04:34:09.714Z,17.83
2022-12-11T04:36:38.774Z,18.13
2022-12-11T04:39:07.165Z,18.33
2022-12-11T04:41:37.141Z,17.87
2022-12-11T04:44:05.124Z,17.23
2022-12-11T04:46:33.188Z,16.40
2022-12-11T04:49:01.279Z,16.27
2022-12-11T04:51:29.657Z,17.33
2022-12-11T04:53:59.444Z,17.17
2022-12-11T04:56:27.338Z,17.30
2022-12-11T04:58:54.963Z,16.97
2022-12-11T05:01:23.905Z,16.77
2022-12-11T05:03:52.130Z,17.30
2022-12-11T05:06:19.764Z,17.83
2022-12-11T05:08:47.579Z,16.40
2022-12-11T05:11:17.439Z,17.20
2022-12-11T05:13:45.747Z,16.23
2022-12-11T05:16:16.393Z,17.80
2022-12-11T05:18:44.235Z,16.83
2022-12-11T05:21:15.451Z,15.77
2022-12-11T05:23:43.748Z,17.60
2022-12-11T05:26:14.162Z,17.30
2022-12-11T05:28:43.414Z,16.17
2022-12-11T05:31:14.035Z,16.67
2022-12-11T05:33:41.873Z,17.80
2022-12-11T05:36:10.262Z,15.73
2022-12-11T05:38:37.905Z,17.13
2022-12-11T05:41:07.213Z,16.23
2022-12-11T05:43:36.847Z,15.93
2022-12-11T05:46:10.046Z,15.87
2022-12-11T05:48:38.787Z,15.80
2022-12-11T05:51:07.267Z,14.80
2022-12-11T05:53:35.334Z,14.50
2022-12-11T05:56:03.586Z,16.13
2022-12-11T05:58:31.254Z,15.43
2022-12-11T06:00:59.000Z,18.33
2022-12-11T06:03:28.035Z,23.40
2022-12-11T06:05:55.841Z,19.57
2022-12-11T06:08:23.534Z,20.03
2022-12-11T06:10:51.650Z,22.67
2022-12-11T06:13:19.395Z,24.10
2022-12-11T06:15:47.034Z,22.63
2022-12-11T06:18:14.702Z,21.43
2022-12-11T06:20:43.786Z,22.60
2022-12-11T06:23:11.554Z,20.80
2022-12-11T06:25:39.859Z,17.90
2022-12-11T06:28:07.533Z,15.90
2022-12-11T06:30:38.664Z,16.30
2022-12-11T06:33:07.447Z,16.50
2022-12-11T06:35:40.259Z,14.57
2022-12-11T06:38:11.537Z,14.53
2022-12-11T06:40:39.595Z,14.27
2022-12-11T06:43:07.341Z,15.20
2022-12-11T06:45:35.036Z,13.30
2022-12-11T06:48:02.733Z,13.43
2022-12-11T06:50:30.430Z,15.60
2022-12-11T06:52:58.168Z,15.43
2022-12-11T06:55:27.262Z,15.27
2022-12-11T06:57:54.899Z,15.93
2022-12-11T07:00:22.847Z,16.63
2022-12-11T07:02:51.654Z,15.90
2022-12-11T07:05:19.508Z,15.20
2022-12-11T07:07:47.192Z,15.77
2022-12-11T07:10:14.882Z,16.03
2022-12-11T07:12:43.869Z,15.50
2022-12-11T07:15:12.517Z,14.97
2022-12-11T07:17:40.490Z,14.77
2022-12-11T07:20:09.212Z,16.10
2022-12-11T07:22:40.345Z,14.30
2022-12-11T07:25:11.246Z,13.53
2022-12-11T07:27:39.196Z,14.60
2022-12-11T07:30:10.303Z,14.20
2022-12-11T07:32:38.017Z,15.53
2022-12-11T07:35:06.752Z,16.20
2022-12-11T07:37:34.424Z,15.40
2022-12-11T07:40:02.092Z,14.83
2022-12-11T07:42:29.783Z,15.50
2022-12-11T07:44:57.501Z,14.83
2022-12-11T07:47:26.484Z,15.20
2022-12-11T07:49:54.070Z,14.23
2022-12-11T07:52:21.667Z,15.57
2022-12-11T07:54:49.510Z,15.57
2022-12-11T07:57:17.127Z,15.67
2022-12-11T07:59:44.752Z,15.70
2022-12-11T08:02:12.669Z,14.60
2022-12-11T08:04:41.647Z,15.93
2022-12-11T08:07:09.367Z,16.80
2022-12-11T08:09:37.073Z,17.17
2022-12-11T08:12:05.157Z,17.03
2022-12-11T08:14:32.860Z,17.00
2022-12-11T08:17:02.331Z,15.90
2022-12-11T08:19:29.942Z,15.03
2022-12-11T08:21:58.870Z,15.53
2022-12-11T08:24:27.586Z,16.73
2022-12-11T08:26:55.239Z,14.33
2022-12-11T08:29:22.821Z,15.50
2022-12-11T08:31:50.443Z,15.20
2022-12-11T08:34:18.106Z,15.13
2022-12-11T08:36:45.796Z,15.10
2022-12-11T08:39:14.967Z,14.33
2022-12-11T08:41:43.336Z,14.40
2022-12-11T08:44:16.689Z,15.17
2022-12-11T08:46:44.936Z,15.20
2022-12-11T08:49:12.915Z,17.13
2022-12-11T08:51:43.021Z,17.35
2022-12-11T08:54:10.816Z,17.70
2022-12-11T08:56:40.114Z,18.10
2022-12-11T08:59:07.886Z,17.43
2022-12-11T09:01:35.560Z,18.47
2022-12-11T09:04:03.664Z,18.13
2022-12-11T09:06:31.923Z,17.33
2022-12-11T09:09:01.075Z,18.03
2022-12-11T09:11:30.847Z,18.63
2022-12-11T09:14:06.754Z,17.90
2022-12-11T09:16:37.714Z,16.00
2022-12-11T09:19:05.508Z,17.53
2022-12-11T09:21:33.210Z,19.20
2022-12-11T09:24:02.160Z,18.37
2022-12-11T09:26:30.646Z,18.27
2022-12-11T09:28:59.787Z,18.63
2022-12-11T09:31:29.953Z,17.83
2022-12-11T09:33:59.359Z,18.33
2022-12-11T09:36:27.604Z,18.90
2022-12-11T09:38:55.535Z,19.13
2022-12-11T09:41:40.444Z,19.17
2022-12-11T09:44:19.290Z,20.67
2022-12-11T09:46:48.110Z,18.20
2022-12-11T09:49:23.350Z,18.93
2022-12-11T09:51:54.120Z,17.13
2022-12-11T09:54:21.671Z,15.93
2022-12-11T09:56:53.608Z,18.83
2022-12-11T09:59:27.725Z,16.53
2022-12-11T10:01:59.654Z,15.17
2022-12-11T10:04:35.626Z,14.93
2022-12-11T10:07:09.773Z,15.63
2022-12-11T10:09:42.091Z,16.63
2022-12-11T10:12:17.906Z,15.57
2022-12-11T10:14:56.707Z,15.47
2022-12-11T10:17:29.074Z,14.53
2022-12-11T10:19:57.666Z,14.10
2022-12-11T10:22:28.535Z,15.33
2022-12-11T10:25:10.563Z,15.37
2022-12-11T10:27:41.222Z,13.37
2022-12-11T10:30:16.837Z,12.97
2022-12-11T10:32:53.002Z,13.80
2022-12-11T10:35:28.072Z,14.40
2022-12-11T10:37:58.024Z,14.63
2022-12-11T10:40:26.738Z,15.07
2022-12-11T10:42:55.457Z,16.03
2022-12-11T10:45:24.969Z,16.47
2022-12-11T10:48:03.554Z,16.47
2022-12-11T10:50:31.190Z,17.13
2022-12-11T10:52:59.379Z,16.20
2022-12-11T10:55:28.858Z,17.03
2022-12-11T10:57:59.945Z,16.93
2022-12-11T11:00:35.575Z,16.83
2022-12-11T11:03:03.625Z,15.50
2022-12-11T11:05:34.564Z,17.33
2022-12-11T11:08:21.380Z,16.43
2022-12-11T11:10:56.966Z,16.67
2022-12-11T11:13:26.359Z,16.60
2022-12-11T11:16:01.732Z,17.00
2022-12-11T11:18:31.001Z,17.27
2022-12-11T11:20:59.235Z,17.13
2022-12-11T11:23:27.446Z,17.70
2022-12-11T11:25:57.332Z,18.20
2022-12-11T11:28:27.658Z,18.60
2022-12-11T11:30:58.556Z,18.57
2022-12-11T11:33:28.110Z,20.03
2022-12-11T11:35:56.957Z,19.40
2022-12-11T11:38:27.542Z,18.43
2022-12-11T11:41:04.349Z,17.30
2022-12-11T11:43:38.576Z,19.63
2022-12-11T11:46:10.132Z,19.13
2022-12-11T11:48:44.655Z,18.00
2022-12-11T11:51:17.800Z,18.53
2022-12-11T11:53:49.268Z,19.70
2022-12-11T11:56:24.063Z,18.27
2022-12-11T11:58:59.220Z,19.50
2022-12-11T12:01:27.201Z,19.93
2022-12-11T12:03:56.593Z,20.40
2022-12-11T12:06:37.492Z,19.00
2022-12-11T12:09:16.201Z,19.93
2022-12-11T12:11:49.434Z,19.80
2022-12-11T12:14:51.122Z,20.47
2022-12-11T12:17:19.376Z,19.37
2022-12-11T12:19:55.512Z,18.50
2022-12-11T12:22:35.089Z,19.13
2022-12-11T12:25:11.730Z,19.23
2022-12-11T12:27:53.266Z,18.10
2022-12-11T12:30:23.381Z,19.87
2022-12-11T12:33:02.042Z,19.47
2022-12-11T12:35:36.940Z,19.03
2022-12-11T12:38:12.662Z,19.27
2022-12-11T12:40:49.896Z,20.27
2022-12-11T12:43:34.774Z,18.20
2022-12-11T12:46:09.005Z,19.43
2022-12-11T12:48:36.955Z,19.07
2022-12-11T12:51:06.573Z,19.43
2022-12-11T12:53:35.936Z,19.17
2022-12-11T12:56:04.748Z,19.77
2022-12-11T12:58:42.131Z,20.77
2022-12-11T13:01:11.310Z,20.27
2022-12-11T13:03:51.327Z,21.37
2022-12-11T13:06:31.847Z,20.93
2022-12-11T13:09:10.002Z,20.03
2022-12-11T13:11:37.949Z,19.83
2022-12-11T13:14:08.137Z,20.47
2022-12-11T13:16:38.133Z,19.33
2022-12-11T13:19:17.983Z,20.17
2022-12-11T13:21:56.396Z,18.97
2022-12-11T13:24:28.509Z,19.13
2022-12-11T13:26:56.409Z,19.23
2022-12-11T13:29:32.332Z,19.90
2022-12-11T13:32:01.657Z,19.23
2022-12-11T13:34:32.978Z,18.57
2022-12-11T13:37:03.509Z,17.80
2022-12-11T13:39:33.955Z,19.80
2022-12-11T13:42:04.432Z,20.10
2022-12-11T13:44:41.848Z,18.50
2022-12-11T13:47:15.510Z,19.43
2022-12-11T13:49:49.424Z,17.33
2022-12-11T13:52:20.213Z,18.50
2022-12-11T13:54:50.022Z,18.40
2022-12-11T13:57:21.039Z,19.20
2022-12-11T13:59:50.142Z,18.87
2022-12-11T14:02:23.817Z,18.50
2022-12-11T14:04:54.726Z,18.87
2022-12-11T14:07:26.933Z,18.33
2022-12-11T14:09:58.141Z,18.40
2022-12-11T14:12:26.317Z,20.00
2022-12-11T14:14:57.173Z,20.43
2022-12-11T14:17:27.349Z,19.53
2022-12-11T14:19:56.315Z,19.17
2022-12-11T14:22:27.133Z,19.17
2022-12-11T14:24:56.255Z,19.97
2022-12-11T14:27:24.641Z,20.20
2022-12-11T14:29:52.794Z,19.07
2022-12-11T14:32:26.466Z,20.17
2022-12-11T14:34:55.457Z,19.57
2022-12-11T14:37:26.500Z,19.33
2022-12-11T14:39:59.004Z,19.33
2022-12-11T14:42:28.816Z,20.87
2022-12-11T14:44:58.757Z,19.43
2022-12-11T14:47:28.854Z,19.30
2022-12-11T14:49:59.462Z,19.20
2022-12-11T14:52:30.858Z,18.53
2022-12-11T14:55:02.596Z,20.60
2022-12-11T14:57:31.922Z,19.40
2022-12-11T14:59:59.707Z,19.10
2022-12-11T15:02:30.696Z,19.80
2022-12-11T15:05:02.571Z,19.23
2022-12-11T15:07:31.834Z,19.47
2022-12-11T15:09:59.482Z,20.07
2022-12-11T15:12:27.178Z,20.80
2022-12-11T15:14:56.422Z,21.17
2022-12-11T15:17:25.042Z,21.00
2022-12-11T15:19:54.620Z,23.90
2022-12-11T15:22:25.185Z,23.17
2022-12-11T15:24:55.159Z,22.47
2022-12-11T15:27:33.931Z,22.77
2022-12-11T15:30:01.673Z,21.43
2022-12-11T15:32:32.216Z,21.60
2022-12-11T15:35:00.985Z,20.27
2022-12-11T15:37:30.465Z,20.67
2022-12-11T15:40:01.400Z,20.80
2022-12-11T15:42:32.912Z,20.67
2022-12-11T15:45:00.518Z,20.13
2022-12-11T15:47:29.914Z,20.63
2022-12-11T15:50:00.086Z,20.97
2022-12-11T15:52:27.800Z,19.87
2022-12-11T15:54:57.558Z,20.83
2022-12-11T15:57:26.710Z,20.97
2022-12-11T15:59:55.215Z,22.33
2022-12-11T16:02:24.666Z,19.40
2022-12-11T16:04:52.427Z,20.43
2022-12-11T16:07:22.404Z,21.17
2022-12-11T16:09:50.386Z,21.20
2022-12-11T16:12:18.973Z,20.07
2022-12-11T16:14:47.972Z,19.80
2022-12-11T16:17:16.446Z,19.70
2022-12-11T16:19:45.441Z,19.47
2022-12-11T16:22:14.026Z,20.80
2022-12-11T16:24:42.484Z,21.13
2022-12-11T16:27:10.547Z,20.43
2022-12-11T16:29:39.883Z,21.60
2022-12-11T16:32:09.744Z,21.57
2022-12-11T16:34:37.738Z,20.60
2022-12-11T16:37:05.663Z,21.37
2022-12-11T16:39:33.372Z,25.67
2022-12-11T16:42:01.112Z,23.10
2022-12-11T16:44:28.792Z,22.73
2022-12-11T16:46:56.666Z,23.47
2022-12-11T16:49:26.191Z,21.93
2022-12-11T16:51:53.819Z,22.17
2022-12-11T16:54:21.484Z,23.23
2022-12-11T16:56:49.109Z,23.63
2022-12-11T16:59:16.696Z,22.40
2022-12-11T17:01:45.154Z,22.97
2022-12-11T17:04:12.760Z,22.27
2022-12-11T17:06:41.670Z,23.33
2022-12-11T17:09:09.284Z,22.37
2022-12-11T17:11:36.891Z,23.57
2022-12-11T17:14:04.612Z,22.63
2022-12-11T17:16:33.920Z,20.83
2022-12-11T17:19:03.025Z,22.60
2022-12-11T17:21:30.592Z,22.37
2022-12-11T17:23:59.643Z,23.03
2022-12-11T17:26:28.503Z,22.97
2022-12-11T17:28:57.702Z,22.10
2022-12-11T17:31:25.546Z,22.53
2022-12-11T17:33:53.958Z,22.60
2022-12-11T17:36:22.826Z,22.73
2022-12-11T17:38:50.613Z,22.93
2022-12-11T17:41:21.172Z,21.93
2022-12-11T17:43:49.582Z,22.40
2022-12-11T17:46:18.043Z,22.33
2022-12-11T17:48:45.814Z,23.03
2022-12-11T17:51:20.803Z,22.53
2022-12-11T17:53:48.558Z,23.03
2022-12-11T17:56:16.376Z,22.23
2022-12-11T17:58:45.551Z,24.10
2022-12-11T18:01:13.387Z,24.73
2022-12-11T18:03:41.315Z,22.60
2022-12-11T18:06:11.481Z,24.07
2022-12-11T18:08:40.280Z,25.10
2022-12-11T18:11:10.269Z,26.20
2022-12-11T18:13:37.929Z,26.03
2022-12-11T18:16:09.026Z,26.53
2022-12-11T18:18:36.842Z,25.70
2022-12-11T18:21:04.945Z,26.20
2022-12-11T18:23:32.836Z,24.10
2022-12-11T18:26:01.323Z,23.47
2022-12-11T18:28:31.771Z,23.03
2022-12-11T18:31:01.583Z,22.67
2022-12-11T18:33:30.919Z,22.47
2022-12-11T18:35:58.558Z,22.03
2022-12-11T18:38:26.514Z,25.23
2022-12-11T18:40:54.186Z,24.10
2022-12-11T18:43:21.934Z,24.10
2022-12-11T18:45:49.634Z,24.07
2022-12-11T18:48:17.401Z,22.83
2022-12-11T18:50:47.556Z,24.23
2022-12-11T18:53:15.451Z,23.50
2022-12-11T18:55:44.400Z,26.20
2022-12-11T18:58:12.678Z,25.33
2022-12-11T19:00:40.974Z,25.90
2022-12-11T19:03:09.556Z,24.43
2022-12-11T19:05:42.212Z,24.00
2022-12-11T19:08:12.621Z,25.03
2022-12-11T19:10:43.751Z,23.67
2022-12-11T19:13:11.417Z,24.73
2022-12-11T19:15:40.304Z,23.53
2022-12-11T19:18:08.111Z,21.93
2022-12-11T19:21:03.160Z,23.93
2022-12-11T19:23:27.313Z,26.10
2022-12-11T19:25:54.932Z,28.93
2022-12-11T19:28:22.525Z,28.47
2022-12-11T19:30:50.192Z,28.47
2022-12-11T19:33:18.112Z,27.60
2022-12-11T19:35:45.758Z,26.90
2022-12-11T19:38:13.746Z,26.93
2022-12-11T19:40:44.395Z,26.10
2022-12-11T19:43:12.563Z,26.80
2022-12-11T19:45:41.443Z,29.03
2022-12-11T19:48:09.106Z,30.13
2022-12-11T19:50:36.996Z,30.53
2022-12-11T19:53:05.059Z,28.23
2022-12-11T19:55:32.655Z,29.53
2022-12-11T19:58:01.690Z,30.57
2022-12-11T20:00:29.367Z,26.57
2022-12-11T20:02:56.988Z,24.57
2022-12-11T20:05:24.596Z,26.53
2022-12-11T20:07:53.191Z,23.83
2022-12-11T20:10:20.787Z,23.53
2022-12-11T20:12:48.422Z,24.63
2022-12-11T20:15:19.460Z,24.37
2022-12-11T20:17:47.279Z,23.63
2022-12-11T20:20:14.862Z,24.07
2022-12-11T20:22:42.506Z,24.80
2022-12-11T20:25:10.686Z,25.37
2022-12-11T20:27:38.773Z,24.70
2022-12-11T20:30:07.777Z,24.27
2022-12-11T20:32:36.950Z,24.07
2022-12-11T20:35:05.192Z,23.73
2022-12-11T20:37:33.016Z,25.13
2022-12-11T20:40:00.881Z,24.07
2022-12-11T20:42:28.591Z,24.30
2022-12-11T20:44:56.409Z,25.23
2022-12-11T20:47:24.075Z,23.50
2022-12-11T20:49:53.149Z,23.13
2022-12-11T20:52:21.675Z,24.40
2022-12-11T20:54:49.601Z,25.30
2022-12-11T20:57:17.321Z,26.43
2022-12-11T20:59:45.338Z,26.10
2022-12-11T21:02:13.405Z,25.30
2022-12-11T21:04:41.596Z,23.43
2022-12-11T21:07:11.385Z,23.53
2022-12-11T21:09:39.581Z,25.13
2022-12-11T21:12:08.004Z,25.93
2022-12-11T21:14:35.773Z,25.20
2022-12-11T21:17:03.451Z,26.07
2022-12-11T21:19:31.153Z,25.67
2022-12-11T21:21:58.998Z,26.07
2022-12-11T21:24:29.976Z,24.77
2022-12-11T21:26:59.002Z,25.40
2022-12-11T21:29:29.282Z,24.07
2022-12-11T21:31:57.513Z,24.50
2022-12-11T21:34:25.965Z,25.13
2022-12-11T21:36:56.696Z,23.73
2022-12-11T21:39:25.083Z,22.33
2022-12-11T21:41:54.144Z,25.23
2022-12-11T21:47:09.627Z,24.07
2022-12-11T21:49:38.169Z,25.17
2022-12-11T21:52:06.076Z,25.20
2022-12-11T21:54:33.767Z,24.80
2022-12-11T21:57:02.882Z,24.73
2022-12-11T21:59:30.470Z,23.93
2022-12-11T22:01:58.236Z,23.23
2022-12-11T22:04:25.848Z,23.57
2022-12-11T22:06:53.484Z,25.20
2022-12-11T22:09:21.165Z,25.53
2022-12-11T22:11:50.614Z,23.70
2022-12-11T22:14:22.649Z,25.90
2022-12-11T22:16:50.264Z,25.30
2022-12-11T22:19:17.892Z,25.70
2022-12-11T22:21:45.480Z,25.17
2022-12-11T22:24:14.059Z,26.77
2022-12-11T22:26:41.782Z,24.70
2022-12-11T22:29:09.367Z,23.93
2022-12-11T22:31:38.426Z,24.57
2022-12-11T22:34:06.054Z,24.57
2022-12-11T22:36:33.652Z,23.43
2022-12-11T22:39:01.918Z,24.47
2022-12-11T22:41:31.085Z,25.00
2022-12-11T22:43:59.489Z,23.80
2022-12-11T22:46:28.857Z,24.17
2022-12-11T22:48:58.315Z,24.97
2022-12-11T22:51:25.988Z,24.00
2022-12-11T22:53:57.303Z,24.20
2022-12-11T22:56:25.660Z,25.40
2022-12-11T22:58:53.339Z,24.83
2022-12-11T23:01:23.495Z,23.80
2022-12-11T23:03:51.258Z,23.90
2022-12-11T23:06:23.135Z,23.87
2022-12-11T23:08:50.798Z,22.30
2022-12-11T23:11:20.540Z,23.57
2022-12-11T23:13:48.175Z,24.33
2022-12-11T23:16:15.955Z,23.07
2022-12-11T23:18:43.996Z,23.67
2022-12-11T23:21:12.748Z,23.63
2022-12-11T23:23:42.763Z,22.53
2022-12-11T23:26:12.013Z,23.23
2022-12-11T23:28:40.211Z,23.50
2022-12-11T23:31:08.095Z,22.23
2022-12-11T23:33:35.810Z,23.23
2022-12-11T23:36:03.767Z,23.70
2022-12-11T23:38:31.468Z,23.53
2022-12-11T23:41:02.243Z,24.33
2022-12-11T23:43:29.909Z,24.13
2022-12-11T23:45:57.779Z,24.70
2022-12-11T23:48:25.482Z,23.20
2022-12-11T23:50:53.179Z,23.37
2022-12-11T23:53:20.771Z,23.37
2022-12-11T23:55:48.324Z,23.53
2022-12-11T23:58:17.274Z,25.87
